sensor_id;sensor_type;location;lat;lon;timestamp;P1;durP1;ratioP1;P2;durP2;ratioP2
8946;SDS011;4508;48.790;9.028;2022-10-13T00:00:27;17.98;;;14.73;;
8946;SDS011;4508;48.790;9.028;2022-10-13T00:02:54;19.50;;;14.07;;
8946;SDS011;4508;48.790;9.028;2022-10-13T00:05:21;18.40;;;15.00;;
8946;SDS011;4508;48.790;9.028;2022-10-13T00:07:49;21.55;;;15.25;;
8946;SDS011;4508;48.790;9.028;2022-10-13T00:10:16;20.90;;;15.53;;
8946;SDS011;4508;48.790;9.028;2022-10-13T00:12:43;20.95;;;15.60;;
8946;SDS011;4508;48.790;9.028;2022-10-13T00:15:09;19.45;;;16.42;;
8946;SDS011;4508;48.790;9.028;2022-10-13T00:17:36;22.63;;;16.05;;
8946;SDS011;4508;48.790;9.028;2022-10-13T00:20:05;20.00;;;15.75;;
8946;SDS011;4508;48.790;9.028;2022-10-13T00:22:33;19.08;;;15.02;;
8946;SDS011;4508;48.790;9.028;2022-10-13T00:25:02;18.17;;;15.63;;
8946;SDS011;4508;48.790;9.028;2022-10-13T00:27:29;19.60;;;15.65;;
8946;SDS011;4508;48.790;9.028;2022-10-13T00:29:56;20.38;;;15.75;;
8946;SDS011;4508;48.790;9.028;2022-10-13T00:32:23;21.50;;;15.68;;
8946;SDS011;4508;48.790;9.028;2022-10-13T00:34:50;20.92;;;15.60;;
8946;SDS011;4508;48.790;9.028;2022-10-13T00:37:17;20.70;;;16.10;;
8946;SDS011;4508;48.790;9.028;2022-10-13T00:39:43;21.90;;;16.08;;
8946;SDS011;4508;48.790;9.028;2022-10-13T00:42:12;19.00;;;15.85;;
8946;SDS011;4508;48.790;9.028;2022-10-13T00:44:58;19.20;;;15.30;;
8946;SDS011;4508;48.790;9.028;2022-10-13T00:47:30;21.27;;;15.88;;
8946;SDS011;4508;48.790;9.028;2022-10-13T00:49:59;22.55;;;16.70;;
8946;SDS011;4508;48.790;9.028;2022-10-13T00:52:28;21.02;;;16.45;;
8946;SDS011;4508;48.790;9.028;2022-10-13T00:54:56;21.23;;;15.93;;
8946;SDS011;4508;48.790;9.028;2022-10-13T00:57:25;21.52;;;16.33;;
8946;SDS011;4508;48.790;9.028;2022-10-13T00:59:52;21.90;;;15.90;;
8946;SDS011;4508;48.790;9.028;2022-10-13T01:02:19;21.23;;;16.70;;
8946;SDS011;4508;48.790;9.028;2022-10-13T01:04:47;19.95;;;15.95;;
8946;SDS011;4508;48.790;9.028;2022-10-13T01:07:15;21.27;;;16.08;;
8946;SDS011;4508;48.790;9.028;2022-10-13T01:09:44;21.67;;;15.60;;
8946;SDS011;4508;48.790;9.028;2022-10-13T01:12:14;20.23;;;16.05;;
8946;SDS011;4508;48.790;9.028;2022-10-13T01:14:52;20.20;;;15.68;;
8946;SDS011;4508;48.790;9.028;2022-10-13T01:17:30;20.00;;;15.77;;
8946;SDS011;4508;48.790;9.028;2022-10-13T01:20:18;20.63;;;16.13;;
8946;SDS011;4508;48.790;9.028;2022-10-13T01:23:43;21.75;;;16.02;;
8946;SDS011;4508;48.790;9.028;2022-10-13T01:32:43;20.98;;;16.38;;
8946;SDS011;4508;48.790;9.028;2022-10-13T01:35:30;20.70;;;16.42;;
8946;SDS011;4508;48.790;9.028;2022-10-13T01:38:06;20.27;;;16.43;;
8946;SDS011;4508;48.790;9.028;2022-10-13T01:40:39;20.17;;;16.00;;
8946;SDS011;4508;48.790;9.028;2022-10-13T01:43:13;21.50;;;17.00;;
8946;SDS011;4508;48.790;9.028;2022-10-13T01:45:46;21.23;;;16.77;;
8946;SDS011;4508;48.790;9.028;2022-10-13T01:48:18;21.95;;;16.67;;
8946;SDS011;4508;48.790;9.028;2022-10-13T01:50:45;21.58;;;17.00;;
8946;SDS011;4508;48.790;9.028;2022-10-13T01:53:13;23.65;;;17.50;;
8946;SDS011;4508;48.790;9.028;2022-10-13T01:55:48;22.08;;;17.40;;
8946;SDS011;4508;48.790;9.028;2022-10-13T01:58:16;24.08;;;17.42;;
8946;SDS011;4508;48.790;9.028;2022-10-13T02:00:46;23.58;;;17.63;;
8946;SDS011;4508;48.790;9.028;2022-10-13T02:03:25;22.80;;;17.30;;
8946;SDS011;4508;48.790;9.028;2022-10-13T02:06:03;26.07;;;17.70;;
8946;SDS011;4508;48.790;9.028;2022-10-13T02:08:38;22.30;;;17.95;;
8946;SDS011;4508;48.790;9.028;2022-10-13T02:11:10;24.63;;;17.55;;
8946;SDS011;4508;48.790;9.028;2022-10-13T02:13:42;22.65;;;17.60;;
8946;SDS011;4508;48.790;9.028;2022-10-13T02:16:15;23.13;;;17.20;;
8946;SDS011;4508;48.790;9.028;2022-10-13T02:18:44;22.75;;;17.60;;
8946;SDS011;4508;48.790;9.028;2022-10-13T02:21:12;22.23;;;17.10;;
8946;SDS011;4508;48.790;9.028;2022-10-13T02:23:41;22.27;;;17.17;;
8946;SDS011;4508;48.790;9.028;2022-10-13T02:26:08;21.33;;;17.48;;
8946;SDS011;4508;48.790;9.028;2022-10-13T02:28:36;24.38;;;17.90;;
8946;SDS011;4508;48.790;9.028;2022-10-13T02:31:03;25.90;;;18.30;;
8946;SDS011;4508;48.790;9.028;2022-10-13T02:33:34;23.90;;;18.07;;
8946;SDS011;4508;48.790;9.028;2022-10-13T02:36:00;24.33;;;18.52;;
8946;SDS011;4508;48.790;9.028;2022-10-13T02:38:27;22.45;;;17.38;;
8946;SDS011;4508;48.790;9.028;2022-10-13T02:40:54;22.93;;;17.50;;
8946;SDS011;4508;48.790;9.028;2022-10-13T02:43:21;23.70;;;17.98;;
8946;SDS011;4508;48.790;9.028;2022-10-13T02:45:49;21.67;;;16.63;;
8946;SDS011;4508;48.790;9.028;2022-10-13T02:48:15;22.45;;;17.33;;
8946;SDS011;4508;48.790;9.028;2022-10-13T02:50:44;25.33;;;17.27;;
8946;SDS011;4508;48.790;9.028;2022-10-13T02:53:11;22.27;;;17.27;;
8946;SDS011;4508;48.790;9.028;2022-10-13T02:55:38;24.88;;;17.55;;
8946;SDS011;4508;48.790;9.028;2022-10-13T02:58:05;23.53;;;17.60;;
8946;SDS011;4508;48.790;9.028;2022-10-13T03:00:32;23.92;;;17.33;;
8946;SDS011;4508;48.790;9.028;2022-10-13T03:02:59;20.17;;;17.00;;
8946;SDS011;4508;48.790;9.028;2022-10-13T03:05:25;23.35;;;17.60;;
8946;SDS011;4508;48.790;9.028;2022-10-13T03:07:54;24.43;;;17.53;;
8946;SDS011;4508;48.790;9.028;2022-10-13T03:10:20;22.52;;;16.92;;
8946;SDS011;4508;48.790;9.028;2022-10-13T03:12:47;24.02;;;17.08;;
8946;SDS011;4508;48.790;9.028;2022-10-13T03:15:14;22.00;;;17.53;;
8946;SDS011;4508;48.790;9.028;2022-10-13T03:17:41;21.88;;;16.90;;
8946;SDS011;4508;48.790;9.028;2022-10-13T03:20:09;20.60;;;16.67;;
8946;SDS011;4508;48.790;9.028;2022-10-13T03:22:36;22.98;;;17.20;;
8946;SDS011;4508;48.790;9.028;2022-10-13T03:25:04;22.63;;;17.00;;
8946;SDS011;4508;48.790;9.028;2022-10-13T03:27:32;23.48;;;16.95;;
8946;SDS011;4508;48.790;9.028;2022-10-13T03:29:58;21.85;;;16.65;;
8946;SDS011;4508;48.790;9.028;2022-10-13T03:32:25;23.20;;;16.65;;
8946;SDS011;4508;48.790;9.028;2022-10-13T03:34:55;20.30;;;16.67;;
8946;SDS011;4508;48.790;9.028;2022-10-13T03:37:21;22.90;;;16.23;;
8946;SDS011;4508;48.790;9.028;2022-10-13T03:39:48;20.13;;;16.10;;
8946;SDS011;4508;48.790;9.028;2022-10-13T03:42:16;19.48;;;15.63;;
8946;SDS011;4508;48.790;9.028;2022-10-13T03:44:43;19.77;;;16.05;;
8946;SDS011;4508;48.790;9.028;2022-10-13T03:47:10;21.67;;;15.73;;
8946;SDS011;4508;48.790;9.028;2022-10-13T03:49:37;23.73;;;15.65;;
8946;SDS011;4508;48.790;9.028;2022-10-13T03:52:04;19.52;;;15.32;;
8946;SDS011;4508;48.790;9.028;2022-10-13T03:54:31;23.02;;;16.10;;
8946;SDS011;4508;48.790;9.028;2022-10-13T03:56:58;21.33;;;15.35;;
8946;SDS011;4508;48.790;9.028;2022-10-13T03:59:26;20.13;;;15.38;;
8946;SDS011;4508;48.790;9.028;2022-10-13T04:01:54;19.48;;;15.40;;
8946;SDS011;4508;48.790;9.028;2022-10-13T04:04:21;19.92;;;14.88;;
8946;SDS011;4508;48.790;9.028;2022-10-13T04:06:48;19.30;;;14.93;;
8946;SDS011;4508;48.790;9.028;2022-10-13T04:09:15;20.25;;;14.85;;
8946;SDS011;4508;48.790;9.028;2022-10-13T04:11:41;20.08;;;14.90;;
8946;SDS011;4508;48.790;9.028;2022-10-13T04:14:08;19.77;;;15.00;;
8946;SDS011;4508;48.790;9.028;2022-10-13T04:16:37;23.10;;;15.15;;
8946;SDS011;4508;48.790;9.028;2022-10-13T04:19:04;18.33;;;14.40;;
8946;SDS011;4508;48.790;9.028;2022-10-13T04:21:32;18.33;;;14.25;;
8946;SDS011;4508;48.790;9.028;2022-10-13T04:23:59;18.98;;;14.55;;
8946;SDS011;4508;48.790;9.028;2022-10-13T04:26:27;18.52;;;14.32;;
8946;SDS011;4508;48.790;9.028;2022-10-13T04:28:56;18.87;;;14.50;;
8946;SDS011;4508;48.790;9.028;2022-10-13T04:31:24;18.80;;;14.23;;
8946;SDS011;4508;48.790;9.028;2022-10-13T04:33:54;18.65;;;14.25;;
8946;SDS011;4508;48.790;9.028;2022-10-13T04:36:21;17.40;;;13.80;;
8946;SDS011;4508;48.790;9.028;2022-10-13T04:38:49;18.05;;;14.70;;
8946;SDS011;4508;48.790;9.028;2022-10-13T04:41:16;19.25;;;14.18;;
8946;SDS011;4508;48.790;9.028;2022-10-13T04:43:45;17.97;;;14.33;;
8946;SDS011;4508;48.790;9.028;2022-10-13T04:46:14;20.80;;;15.07;;
8946;SDS011;4508;48.790;9.028;2022-10-13T04:48:43;19.80;;;15.10;;
8946;SDS011;4508;48.790;9.028;2022-10-13T04:51:12;20.30;;;15.27;;
8946;SDS011;4508;48.790;9.028;2022-10-13T04:53:40;17.98;;;15.32;;
8946;SDS011;4508;48.790;9.028;2022-10-13T04:56:08;19.65;;;15.20;;
8946;SDS011;4508;48.790;9.028;2022-10-13T04:58:36;20.48;;;14.90;;
8946;SDS011;4508;48.790;9.028;2022-10-13T05:01:05;23.07;;;17.00;;
8946;SDS011;4508;48.790;9.028;2022-10-13T05:03:33;23.42;;;16.38;;
8946;SDS011;4508;48.790;9.028;2022-10-13T05:06:00;21.95;;;16.50;;
8946;SDS011;4508;48.790;9.028;2022-10-13T05:08:28;20.17;;;15.45;;
8946;SDS011;4508;48.790;9.028;2022-10-13T05:10:57;19.85;;;15.63;;
8946;SDS011;4508;48.790;9.028;2022-10-13T05:13:25;19.80;;;15.93;;
8946;SDS011;4508;48.790;9.028;2022-10-13T05:15:53;21.15;;;16.60;;
8946;SDS011;4508;48.790;9.028;2022-10-13T05:18:20;23.67;;;17.48;;
8946;SDS011;4508;48.790;9.028;2022-10-13T05:20:47;19.95;;;16.38;;
8946;SDS011;4508;48.790;9.028;2022-10-13T05:23:14;22.23;;;17.17;;
8946;SDS011;4508;48.790;9.028;2022-10-13T05:25:43;25.85;;;17.10;;
8946;SDS011;4508;48.790;9.028;2022-10-13T05:28:10;20.80;;;16.63;;
8946;SDS011;4508;48.790;9.028;2022-10-13T05:30:37;21.58;;;16.75;;
8946;SDS011;4508;48.790;9.028;2022-10-13T05:33:04;23.15;;;16.98;;
8946;SDS011;4508;48.790;9.028;2022-10-13T05:35:30;20.23;;;17.05;;
8946;SDS011;4508;48.790;9.028;2022-10-13T05:37:57;21.05;;;16.45;;
8946;SDS011;4508;48.790;9.028;2022-10-13T05:40:24;21.52;;;17.58;;
8946;SDS011;4508;48.790;9.028;2022-10-13T05:42:53;18.55;;;16.55;;
8946;SDS011;4508;48.790;9.028;2022-10-13T05:45:21;21.23;;;17.13;;
8946;SDS011;4508;48.790;9.028;2022-10-13T05:47:49;21.05;;;18.20;;
8946;SDS011;4508;48.790;9.028;2022-10-13T05:50:16;20.77;;;17.20;;
8946;SDS011;4508;48.790;9.028;2022-10-13T05:52:43;24.17;;;17.23;;
8946;SDS011;4508;48.790;9.028;2022-10-13T05:55:10;22.60;;;17.53;;
8946;SDS011;4508;48.790;9.028;2022-10-13T05:57:40;22.63;;;18.25;;
8946;SDS011;4508;48.790;9.028;2022-10-13T06:00:12;20.33;;;17.38;;
8946;SDS011;4508;48.790;9.028;2022-10-13T06:02:42;20.58;;;17.20;;
8946;SDS011;4508;48.790;9.028;2022-10-13T06:05:12;21.60;;;17.50;;
8946;SDS011;4508;48.790;9.028;2022-10-13T06:07:42;24.02;;;18.23;;
8946;SDS011;4508;48.790;9.028;2022-10-13T06:10:11;21.83;;;18.77;;
8946;SDS011;4508;48.790;9.028;2022-10-13T06:12:38;23.17;;;18.83;;
8946;SDS011;4508;48.790;9.028;2022-10-13T06:15:05;25.23;;;18.60;;
8946;SDS011;4508;48.790;9.028;2022-10-13T06:17:35;21.83;;;17.77;;
8946;SDS011;4508;48.790;9.028;2022-10-13T06:20:03;22.70;;;18.97;;
8946;SDS011;4508;48.790;9.028;2022-10-13T06:22:31;23.37;;;18.23;;
8946;SDS011;4508;48.790;9.028;2022-10-13T06:24:58;22.15;;;17.60;;
8946;SDS011;4508;48.790;9.028;2022-10-13T06:27:25;21.30;;;18.00;;
8946;SDS011;4508;48.790;9.028;2022-10-13T06:29:52;20.63;;;18.40;;
8946;SDS011;4508;48.790;9.028;2022-10-13T06:32:19;21.45;;;17.35;;
8946;SDS011;4508;48.790;9.028;2022-10-13T06:34:48;22.90;;;18.00;;
8946;SDS011;4508;48.790;9.028;2022-10-13T06:37:14;22.35;;;18.63;;
8946;SDS011;4508;48.790;9.028;2022-10-13T06:39:41;19.90;;;17.17;;
8946;SDS011;4508;48.790;9.028;2022-10-13T06:42:08;20.52;;;17.65;;
8946;SDS011;4508;48.790;9.028;2022-10-13T06:44:35;20.63;;;18.02;;
8946;SDS011;4508;48.790;9.028;2022-10-13T06:47:02;21.80;;;18.55;;
8946;SDS011;4508;48.790;9.028;2022-10-13T06:49:29;21.00;;;18.42;;
8946;SDS011;4508;48.790;9.028;2022-10-13T06:51:58;21.70;;;18.70;;
8946;SDS011;4508;48.790;9.028;2022-10-13T06:54:25;22.60;;;18.15;;
8946;SDS011;4508;48.790;9.028;2022-10-13T06:56:52;21.75;;;17.83;;
8946;SDS011;4508;48.790;9.028;2022-10-13T06:59:19;22.30;;;18.33;;
8946;SDS011;4508;48.790;9.028;2022-10-13T07:01:46;22.35;;;17.98;;
8946;SDS011;4508;48.790;9.028;2022-10-13T07:04:13;24.05;;;18.48;;
8946;SDS011;4508;48.790;9.028;2022-10-13T07:06:40;23.13;;;17.52;;
8946;SDS011;4508;48.790;9.028;2022-10-13T07:09:08;22.15;;;17.75;;
8946;SDS011;4508;48.790;9.028;2022-10-13T07:11:35;19.63;;;17.42;;
8946;SDS011;4508;48.790;9.028;2022-10-13T07:14:02;20.85;;;17.23;;
8946;SDS011;4508;48.790;9.028;2022-10-13T07:16:30;23.20;;;17.20;;
8946;SDS011;4508;48.790;9.028;2022-10-13T07:18:57;19.27;;;16.92;;
8946;SDS011;4508;48.790;9.028;2022-10-13T07:21:24;20.47;;;17.37;;
8946;SDS011;4508;48.790;9.028;2022-10-13T07:23:51;17.90;;;16.00;;
8946;SDS011;4508;48.790;9.028;2022-10-13T07:26:19;20.02;;;16.80;;
8946;SDS011;4508;48.790;9.028;2022-10-13T07:28:46;19.30;;;16.25;;
8946;SDS011;4508;48.790;9.028;2022-10-13T07:31:14;19.07;;;16.40;;
8946;SDS011;4508;48.790;9.028;2022-10-13T07:33:42;18.50;;;16.42;;
8946;SDS011;4508;48.790;9.028;2022-10-13T07:36:10;18.58;;;16.20;;
8946;SDS011;4508;48.790;9.028;2022-10-13T07:38:38;19.15;;;16.25;;
8946;SDS011;4508;48.790;9.028;2022-10-13T07:41:07;19.85;;;16.80;;
8946;SDS011;4508;48.790;9.028;2022-10-13T07:43:36;19.42;;;16.52;;
8946;SDS011;4508;48.790;9.028;2022-10-13T07:46:04;18.27;;;16.27;;
8946;SDS011;4508;48.790;9.028;2022-10-13T07:48:32;18.63;;;15.23;;
8946;SDS011;4508;48.790;9.028;2022-10-13T07:51:02;19.10;;;15.27;;
8946;SDS011;4508;48.790;9.028;2022-10-13T07:53:30;20.77;;;15.30;;
8946;SDS011;4508;48.790;9.028;2022-10-13T07:55:59;16.60;;;14.80;;
8946;SDS011;4508;48.790;9.028;2022-10-13T07:58:26;17.13;;;14.80;;
8946;SDS011;4508;48.790;9.028;2022-10-13T08:00:58;17.50;;;14.73;;
8946;SDS011;4508;48.790;9.028;2022-10-13T08:03:25;17.17;;;13.52;;
8946;SDS011;4508;48.790;9.028;2022-10-13T08:05:52;17.40;;;13.80;;
8946;SDS011;4508;48.790;9.028;2022-10-13T08:08:20;16.03;;;12.67;;
8946;SDS011;4508;48.790;9.028;2022-10-13T08:10:47;14.75;;;13.15;;
8946;SDS011;4508;48.790;9.028;2022-10-13T08:13:14;15.10;;;12.43;;
8946;SDS011;4508;48.790;9.028;2022-10-13T08:15:41;13.60;;;11.40;;
8946;SDS011;4508;48.790;9.028;2022-10-13T08:18:12;12.43;;;10.60;;
8946;SDS011;4508;48.790;9.028;2022-10-13T08:20:39;13.73;;;11.13;;
8946;SDS011;4508;48.790;9.028;2022-10-13T08:23:07;13.63;;;10.38;;
8946;SDS011;4508;48.790;9.028;2022-10-13T08:25:35;15.63;;;9.60;;
8946;SDS011;4508;48.790;9.028;2022-10-13T08:28:03;13.20;;;9.82;;
8946;SDS011;4508;48.790;9.028;2022-10-13T08:30:30;11.85;;;9.35;;
8946;SDS011;4508;48.790;9.028;2022-10-13T08:32:57;12.27;;;9.07;;
8946;SDS011;4508;48.790;9.028;2022-10-13T08:35:26;15.13;;;8.70;;
8946;SDS011;4508;48.790;9.028;2022-10-13T08:37:53;10.88;;;8.40;;
8946;SDS011;4508;48.790;9.028;2022-10-13T08:40:20;11.63;;;7.77;;
8946;SDS011;4508;48.790;9.028;2022-10-13T08:42:48;11.97;;;7.73;;
8946;SDS011;4508;48.790;9.028;2022-10-13T08:45:16;12.88;;;7.55;;
8946;SDS011;4508;48.790;9.028;2022-10-13T08:47:46;11.50;;;7.75;;
8946;SDS011;4508;48.790;9.028;2022-10-13T08:50:17;8.93;;;7.20;;
8946;SDS011;4508;48.790;9.028;2022-10-13T08:52:48;9.65;;;7.28;;
8946;SDS011;4508;48.790;9.028;2022-10-13T08:55:22;9.25;;;6.82;;
8946;SDS011;4508;48.790;9.028;2022-10-13T08:57:53;8.20;;;6.70;;
8946;SDS011;4508;48.790;9.028;2022-10-13T09:00:20;10.82;;;6.50;;
8946;SDS011;4508;48.790;9.028;2022-10-13T09:02:47;9.40;;;6.60;;
8946;SDS011;4508;48.790;9.028;2022-10-13T09:05:17;7.90;;;6.60;;
8946;SDS011;4508;48.790;9.028;2022-10-13T09:07:54;8.65;;;6.53;;
8946;SDS011;4508;48.790;9.028;2022-10-13T09:10:23;9.43;;;6.80;;
8946;SDS011;4508;48.790;9.028;2022-10-13T09:12:50;9.90;;;7.20;;
8946;SDS011;4508;48.790;9.028;2022-10-13T09:15:17;9.55;;;6.40;;
8946;SDS011;4508;48.790;9.028;2022-10-13T09:17:45;9.50;;;6.47;;
8946;SDS011;4508;48.790;9.028;2022-10-13T09:20:36;10.20;;;7.15;;
8946;SDS011;4508;48.790;9.028;2022-10-13T09:23:05;9.25;;;6.68;;
8946;SDS011;4508;48.790;9.028;2022-10-13T09:25:42;9.63;;;7.00;;
8946;SDS011;4508;48.790;9.028;2022-10-13T09:28:13;9.25;;;7.25;;
8946;SDS011;4508;48.790;9.028;2022-10-13T09:30:44;9.63;;;7.13;;
8946;SDS011;4508;48.790;9.028;2022-10-13T09:33:18;10.93;;;7.28;;
8946;SDS011;4508;48.790;9.028;2022-10-13T09:35:47;9.55;;;7.20;;
8946;SDS011;4508;48.790;9.028;2022-10-13T09:38:32;8.50;;;6.80;;
8946;SDS011;4508;48.790;9.028;2022-10-13T09:41:01;9.52;;;7.28;;
8946;SDS011;4508;48.790;9.028;2022-10-13T09:43:30;11.80;;;7.60;;
8946;SDS011;4508;48.790;9.028;2022-10-13T09:45:59;12.02;;;7.53;;
8946;SDS011;4508;48.790;9.028;2022-10-13T09:48:30;11.27;;;7.50;;
8946;SDS011;4508;48.790;9.028;2022-10-13T09:50:59;9.13;;;7.07;;
8946;SDS011;4508;48.790;9.028;2022-10-13T09:53:28;9.98;;;6.63;;
8946;SDS011;4508;48.790;9.028;2022-10-13T09:56:07;9.57;;;6.80;;
8946;SDS011;4508;48.790;9.028;2022-10-13T09:58:43;8.65;;;6.72;;
8946;SDS011;4508;48.790;9.028;2022-10-13T10:01:16;9.45;;;6.75;;
8946;SDS011;4508;48.790;9.028;2022-10-13T10:03:47;9.97;;;6.73;;
8946;SDS011;4508;48.790;9.028;2022-10-13T10:06:15;8.85;;;6.50;;
8946;SDS011;4508;48.790;9.028;2022-10-13T10:08:44;8.70;;;6.05;;
8946;SDS011;4508;48.790;9.028;2022-10-13T10:11:21;7.05;;;5.90;;
8946;SDS011;4508;48.790;9.028;2022-10-13T10:13:53;8.57;;;6.00;;
8946;SDS011;4508;48.790;9.028;2022-10-13T10:16:23;7.28;;;5.68;;
8946;SDS011;4508;48.790;9.028;2022-10-13T10:18:57;10.02;;;5.78;;
8946;SDS011;4508;48.790;9.028;2022-10-13T10:21:30;6.80;;;5.30;;
8946;SDS011;4508;48.790;9.028;2022-10-13T10:24:04;8.63;;;5.80;;
8946;SDS011;4508;48.790;9.028;2022-10-13T10:26:42;7.22;;;5.50;;
8946;SDS011;4508;48.790;9.028;2022-10-13T10:29:18;8.98;;;5.35;;
8946;SDS011;4508;48.790;9.028;2022-10-13T10:31:56;9.73;;;5.65;;
8946;SDS011;4508;48.790;9.028;2022-10-13T10:34:38;8.02;;;5.60;;
8946;SDS011;4508;48.790;9.028;2022-10-13T10:37:13;6.22;;;5.50;;
8946;SDS011;4508;48.790;9.028;2022-10-13T10:39:45;7.32;;;5.82;;
8946;SDS011;4508;48.790;9.028;2022-10-13T10:42:22;7.40;;;5.63;;
8946;SDS011;4508;48.790;9.028;2022-10-13T10:45:12;8.40;;;5.85;;
8946;SDS011;4508;48.790;9.028;2022-10-13T10:47:43;8.52;;;6.07;;
8946;SDS011;4508;48.790;9.028;2022-10-13T10:50:13;7.00;;;5.80;;
8946;SDS011;4508;48.790;9.028;2022-10-13T10:52:44;8.23;;;5.67;;
8946;SDS011;4508;48.790;9.028;2022-10-13T10:55:19;6.88;;;5.65;;
8946;SDS011;4508;48.790;9.028;2022-10-13T10:57:55;7.30;;;5.50;;
8946;SDS011;4508;48.790;9.028;2022-10-13T11:00:26;8.13;;;5.60;;
8946;SDS011;4508;48.790;9.028;2022-10-13T11:02:55;6.93;;;5.50;;
8946;SDS011;4508;48.790;9.028;2022-10-13T11:05:29;7.50;;;5.60;;
8946;SDS011;4508;48.790;9.028;2022-10-13T11:08:24;6.72;;;5.60;;
8946;SDS011;4508;48.790;9.028;2022-10-13T11:13:55;6.57;;;5.30;;
8946;SDS011;4508;48.790;9.028;2022-10-13T11:16:28;7.47;;;5.10;;
8946;SDS011;4508;48.790;9.028;2022-10-13T11:18:58;8.50;;;5.22;;
8946;SDS011;4508;48.790;9.028;2022-10-13T11:24:48;7.85;;;5.28;;
8946;SDS011;4508;48.790;9.028;2022-10-13T11:27:26;7.15;;;5.40;;
8946;SDS011;4508;48.790;9.028;2022-10-13T11:30:37;7.85;;;5.65;;
8946;SDS011;4508;48.790;9.028;2022-10-13T11:33:33;7.38;;;5.38;;
8946;SDS011;4508;48.790;9.028;2022-10-13T11:39:33;9.05;;;6.05;;
8946;SDS011;4508;48.790;9.028;2022-10-13T11:42:38;7.88;;;5.75;;
8946;SDS011;4508;48.790;9.028;2022-10-13T11:45:39;7.88;;;5.50;;
8946;SDS011;4508;48.790;9.028;2022-10-13T11:48:35;6.43;;;5.00;;
8946;SDS011;4508;48.790;9.028;2022-10-13T11:51:21;6.80;;;4.90;;
8946;SDS011;4508;48.790;9.028;2022-10-13T11:53:58;5.47;;;4.75;;
8946;SDS011;4508;48.790;9.028;2022-10-13T11:56:31;6.18;;;4.50;;
8946;SDS011;4508;48.790;9.028;2022-10-13T11:59:00;6.40;;;4.80;;
8946;SDS011;4508;48.790;9.028;2022-10-13T12:01:29;7.68;;;5.18;;
8946;SDS011;4508;48.790;9.028;2022-10-13T12:03:55;8.32;;;4.82;;
8946;SDS011;4508;48.790;9.028;2022-10-13T12:06:27;6.63;;;4.63;;
8946;SDS011;4508;48.790;9.028;2022-10-13T12:08:59;7.05;;;4.63;;
8946;SDS011;4508;48.790;9.028;2022-10-13T12:11:28;5.55;;;4.57;;
8946;SDS011;4508;48.790;9.028;2022-10-13T12:13:57;7.15;;;4.97;;
8946;SDS011;4508;48.790;9.028;2022-10-13T12:16:25;8.23;;;4.65;;
8946;SDS011;4508;48.790;9.028;2022-10-13T12:18:54;6.75;;;5.10;;
8946;SDS011;4508;48.790;9.028;2022-10-13T12:21:32;8.13;;;5.20;;
8946;SDS011;4508;48.790;9.028;2022-10-13T12:24:05;8.75;;;5.30;;
8946;SDS011;4508;48.790;9.028;2022-10-13T12:26:33;5.95;;;4.60;;
8946;SDS011;4508;48.790;9.028;2022-10-13T12:29:01;6.03;;;4.70;;
8946;SDS011;4508;48.790;9.028;2022-10-13T12:31:37;5.67;;;4.50;;
8946;SDS011;4508;48.790;9.028;2022-10-13T12:34:15;5.50;;;4.78;;
8946;SDS011;4508;48.790;9.028;2022-10-13T12:36:44;8.80;;;4.53;;
8946;SDS011;4508;48.790;9.028;2022-10-13T12:39:16;6.93;;;4.88;;
8946;SDS011;4508;48.790;9.028;2022-10-13T12:41:44;6.93;;;4.90;;
8946;SDS011;4508;48.790;9.028;2022-10-13T12:44:13;9.40;;;4.85;;
8946;SDS011;4508;48.790;9.028;2022-10-13T12:46:43;6.95;;;4.60;;
8946;SDS011;4508;48.790;9.028;2022-10-13T12:49:13;6.45;;;4.22;;
8946;SDS011;4508;48.790;9.028;2022-10-13T12:51:41;6.00;;;3.80;;
8946;SDS011;4508;48.790;9.028;2022-10-13T12:54:14;6.07;;;4.20;;
8946;SDS011;4508;48.790;9.028;2022-10-13T12:56:47;7.03;;;4.03;;
8946;SDS011;4508;48.790;9.028;2022-10-13T12:59:15;6.03;;;3.97;;
8946;SDS011;4508;48.790;9.028;2022-10-13T13:01:44;6.53;;;4.07;;
8946;SDS011;4508;48.790;9.028;2022-10-13T13:04:26;7.60;;;4.47;;
8946;SDS011;4508;48.790;9.028;2022-10-13T13:07:04;8.18;;;3.90;;
8946;SDS011;4508;48.790;9.028;2022-10-13T13:09:57;8.23;;;4.57;;
8946;SDS011;4508;48.790;9.028;2022-10-13T13:12:26;8.60;;;4.40;;
8946;SDS011;4508;48.790;9.028;2022-10-13T13:14:53;7.85;;;4.35;;
8946;SDS011;4508;48.790;9.028;2022-10-13T13:17:22;6.43;;;4.00;;
8946;SDS011;4508;48.790;9.028;2022-10-13T13:19:53;7.78;;;4.50;;
8946;SDS011;4508;48.790;9.028;2022-10-13T13:22:21;6.03;;;4.27;;
8946;SDS011;4508;48.790;9.028;2022-10-13T13:24:49;7.75;;;4.70;;
8946;SDS011;4508;48.790;9.028;2022-10-13T13:27:17;6.13;;;4.35;;
8946;SDS011;4508;48.790;9.028;2022-10-13T13:29:52;6.60;;;4.28;;
8946;SDS011;4508;48.790;9.028;2022-10-13T13:32:20;5.95;;;4.07;;
8946;SDS011;4508;48.790;9.028;2022-10-13T13:34:49;7.28;;;4.18;;
8946;SDS011;4508;48.790;9.028;2022-10-13T13:37:22;6.72;;;4.00;;
8946;SDS011;4508;48.790;9.028;2022-10-13T13:39:51;5.73;;;4.13;;
8946;SDS011;4508;48.790;9.028;2022-10-13T13:42:18;6.15;;;4.15;;
8946;SDS011;4508;48.790;9.028;2022-10-13T13:44:45;7.60;;;4.00;;
8946;SDS011;4508;48.790;9.028;2022-10-13T13:47:16;6.90;;;4.40;;
8946;SDS011;4508;48.790;9.028;2022-10-13T13:49:45;7.28;;;3.97;;
8946;SDS011;4508;48.790;9.028;2022-10-13T13:52:13;7.80;;;3.97;;
8946;SDS011;4508;48.790;9.028;2022-10-13T13:54:41;6.38;;;3.60;;
8946;SDS011;4508;48.790;9.028;2022-10-13T13:57:09;7.90;;;3.85;;
8946;SDS011;4508;48.790;9.028;2022-10-13T13:59:36;7.40;;;4.03;;
8946;SDS011;4508;48.790;9.028;2022-10-13T14:02:04;6.50;;;3.95;;
8946;SDS011;4508;48.790;9.028;2022-10-13T14:04:32;7.60;;;3.85;;
8946;SDS011;4508;48.790;9.028;2022-10-13T14:06:59;7.35;;;3.70;;
8946;SDS011;4508;48.790;9.028;2022-10-13T14:09:25;7.60;;;3.92;;
8946;SDS011;4508;48.790;9.028;2022-10-13T14:11:54;7.50;;;3.75;;
8946;SDS011;4508;48.790;9.028;2022-10-13T14:14:20;6.60;;;3.70;;
8946;SDS011;4508;48.790;9.028;2022-10-13T14:16:47;6.17;;;3.80;;
8946;SDS011;4508;48.790;9.028;2022-10-13T14:19:14;7.43;;;4.50;;
8946;SDS011;4508;48.790;9.028;2022-10-13T14:21:41;6.60;;;5.22;;
8946;SDS011;4508;48.790;9.028;2022-10-13T14:24:10;7.30;;;5.20;;
8946;SDS011;4508;48.790;9.028;2022-10-13T14:26:37;9.18;;;5.60;;
8946;SDS011;4508;48.790;9.028;2022-10-13T14:29:05;8.45;;;5.70;;
8946;SDS011;4508;48.790;9.028;2022-10-13T14:31:32;8.32;;;6.95;;
8946;SDS011;4508;48.790;9.028;2022-10-13T14:33:59;11.90;;;7.63;;
8946;SDS011;4508;48.790;9.028;2022-10-13T14:36:26;12.05;;;7.70;;
8946;SDS011;4508;48.790;9.028;2022-10-13T14:38:53;13.02;;;8.00;;
8946;SDS011;4508;48.790;9.028;2022-10-13T14:41:20;10.40;;;7.68;;
8946;SDS011;4508;48.790;9.028;2022-10-13T14:43:50;11.15;;;7.88;;
8946;SDS011;4508;48.790;9.028;2022-10-13T14:46:19;13.80;;;7.70;;
8946;SDS011;4508;48.790;9.028;2022-10-13T14:48:46;11.63;;;8.52;;
8946;SDS011;4508;48.790;9.028;2022-10-13T14:51:13;10.02;;;8.25;;
8946;SDS011;4508;48.790;9.028;2022-10-13T14:53:42;10.82;;;7.88;;
8946;SDS011;4508;48.790;9.028;2022-10-13T14:56:14;9.48;;;7.97;;
8946;SDS011;4508;48.790;9.028;2022-10-13T14:58:43;11.90;;;8.15;;
8946;SDS011;4508;48.790;9.028;2022-10-13T15:01:10;10.03;;;7.97;;
8946;SDS011;4508;48.790;9.028;2022-10-13T15:03:38;10.23;;;7.93;;
8946;SDS011;4508;48.790;9.028;2022-10-13T15:06:05;10.38;;;7.68;;
8946;SDS011;4508;48.790;9.028;2022-10-13T15:08:32;13.17;;;7.90;;
8946;SDS011;4508;48.790;9.028;2022-10-13T15:11:00;13.10;;;8.63;;
8946;SDS011;4508;48.790;9.028;2022-10-13T15:13:27;9.80;;;7.90;;
8946;SDS011;4508;48.790;9.028;2022-10-13T15:15:55;11.90;;;8.05;;
8946;SDS011;4508;48.790;9.028;2022-10-13T15:18:25;10.40;;;8.23;;
8946;SDS011;4508;48.790;9.028;2022-10-13T15:20:53;9.50;;;7.70;;
8946;SDS011;4508;48.790;9.028;2022-10-13T15:23:20;10.25;;;7.80;;
8946;SDS011;4508;48.790;9.028;2022-10-13T15:25:50;11.50;;;7.70;;
8946;SDS011;4508;48.790;9.028;2022-10-13T15:28:18;12.43;;;8.20;;
8946;SDS011;4508;48.790;9.028;2022-10-13T15:30:45;12.07;;;8.02;;